Terminal Aerodrome Forecast
Issued by NWS Lake Charles, LA

Home | Current Version | Previous Version | Text Only | Print | Product List | Glossary On
Versions: 1 2 3 4 5 6 7 8 9 10 11 12
000
FTUS44 KLCH 282300
TAFBPT
TAF
KBPT 282332Z 2900/2924 16007KT P6SM OVC040
     FM290500 17007KT P6SM OVC035
     FM290900 17007KT P6SM OVC025
     FM291600 18014G21KT P6SM BKN035=

USA.gov is the U.S. government's official web portal to all federal, state and local government web resources and services.